This is the latest recevied weather packets stored in our database for station/object VK5GR-12. If no packets are shown the sender has not sent any weather packets the latest 10 day(s).
| Time | Temp. | Humidity | Pressure | Rain* | Wind** | Luminosity | Snow |
|---|---|---|---|---|---|---|---|
| 1777473475 | 23.33° C | 33% | 1022.7 hPa | 0 mm | - | 0 W/m² | - |
| 1777472570 | 23.89° C | 33% | 1022.8 hPa | 0 mm | - | 0 W/m² | - |
| 1777470762 | 23.89° C | 33% | 1022.9 hPa | 0 mm | - | 0 W/m² | - |
| 1777468049 | 23.33° C | 35% | 1023 hPa | 0 mm | - | 0 W/m² | - |
| 1777467148 | 23.33° C | 36% | 1023 hPa | 0 mm | - | 0 W/m² | - |
| 1777466246 | 22.78° C | 37% | 1023.3 hPa | 0 mm | - | 0 W/m² | - |
| 1777465345 | 22.78° C | 38% | 1023.1 hPa | 0 mm | - | 0 W/m² | - |
| 1777462637 | 21.67° C | 40% | 1023.3 hPa | 0 mm | - | 0 W/m² | - |
| 1777461738 | 21.11° C | 41% | 1023.2 hPa | 0 mm | - | 0 W/m² | - |
| 1777460836 | 21.11° C | 41% | 1023.2 hPa | 0 mm | - | 0 W/m² | - |
| 1777459931 | 21.11° C | 42% | 1023.1 hPa | 0 mm | - | 0 W/m² | - |
| 1777459029 | 21.11° C | 42% | 1023.3 hPa | 0 mm | - | 0 W/m² | - |
| 1777458125 | 21.67° C | 40% | 1023 hPa | 0 mm | - | 0 W/m² | - |
| 1777457222 | 21.67° C | 40% | 1023.1 hPa | 0 mm | - | 0 W/m² | - |
| 1777455415 | 21.67° C | 39% | 1023.3 hPa | 0 mm | - | 0 W/m² | - |
| 1777454511 | 21.67° C | 38% | 1023.2 hPa | 0 mm | - | 0 W/m² | - |
| 1777453608 | 21.67° C | 39% | 1023.1 hPa | 0 mm | - | 0 W/m² | - |
| 1777452704 | 22.78° C | 40% | 1022.8 hPa | 0 mm | - | 0 W/m² | - |
| 1777451803 | 23.33° C | 39% | 1022.8 hPa | 0 mm | - | 0 W/m² | - |
| 1777450904 | 23.33° C | 38% | 1022.8 hPa | 0 mm | - | 0 W/m² | - |
| 1777450003 | 24.44° C | 35% | 1022.5 hPa | 0 mm | - | 2 W/m² | - |
| 1777449103 | 24.44° C | 35% | 1022.6 hPa | 0 mm | - | 10 W/m² | - |
| 1777448198 | 25° C | 34% | 1022.4 hPa | 0 mm | - | 20 W/m² | - |
| 1777447298 | 25.56° C | 33% | 1022 hPa | 0 mm | - | 30 W/m² | - |
| 1777446395 | 26.11° C | 33% | 1022 hPa | 0 mm | - | 49 W/m² | - |
* Rain latest hour (hover to see other rain measurements)
** Current wind speed in m/s (hover to see current wind gust speed)